sensor_id;sensor_type;location;lat;lon;timestamp;pressure;altitude;pressure_sealevel;temperature;humidity
51147;BME280;37207;53.060;18.726;2023-04-04T00:01:11;101897.33;;;-0.54;70.65
51147;BME280;37207;53.060;18.726;2023-04-04T00:03:37;101899.48;;;-0.57;70.55
51147;BME280;37207;53.060;18.726;2023-04-04T00:06:03;101897.73;;;-0.61;70.85
51147;BME280;37207;53.060;18.726;2023-04-04T00:08:29;101896.63;;;-0.63;70.68
51147;BME280;37207;53.060;18.726;2023-04-04T00:10:57;101896.85;;;-0.65;70.64
51147;BME280;37207;53.060;18.726;2023-04-04T00:13:23;101896.93;;;-0.65;71.16
51147;BME280;37207;53.060;18.726;2023-04-04T00:15:51;101894.59;;;-0.66;70.91
51147;BME280;37207;53.060;18.726;2023-04-04T00:18:17;101893.49;;;-0.68;71.01
51147;BME280;37207;53.060;18.726;2023-04-04T00:20:43;101891.80;;;-0.70;71.04
51147;BME280;37207;53.060;18.726;2023-04-04T00:23:09;101888.20;;;-0.73;71.23
51147;BME280;37207;53.060;18.726;2023-04-04T00:25:38;101890.27;;;-0.75;71.54
51147;BME280;37207;53.060;18.726;2023-04-04T00:28:04;101892.13;;;-0.76;71.44
51147;BME280;37207;53.060;18.726;2023-04-04T00:30:30;101888.16;;;-0.78;71.33
51147;BME280;37207;53.060;18.726;2023-04-04T00:32:56;101884.27;;;-0.80;71.52
51147;BME280;37207;53.060;18.726;2023-04-04T00:35:22;101880.99;;;-0.81;71.78
51147;BME280;37207;53.060;18.726;2023-04-04T00:37:48;101881.52;;;-0.84;71.87
51147;BME280;37207;53.060;18.726;2023-04-04T00:40:14;101871.52;;;-0.86;71.74
51147;BME280;37207;53.060;18.726;2023-04-04T00:42:40;101868.64;;;-0.88;71.69
51147;BME280;37207;53.060;18.726;2023-04-04T00:45:07;101862.80;;;-0.90;71.85
51147;BME280;37207;53.060;18.726;2023-04-04T00:47:33;101864.18;;;-0.92;71.64
51147;BME280;37207;53.060;18.726;2023-04-04T00:50:00;101861.07;;;-0.94;71.49
51147;BME280;37207;53.060;18.726;2023-04-04T00:52:27;101859.26;;;-0.96;71.57
51147;BME280;37207;53.060;18.726;2023-04-04T00:54:54;101858.09;;;-0.98;71.98
51147;BME280;37207;53.060;18.726;2023-04-04T00:57:21;101860.26;;;-0.97;72.36
51147;BME280;37207;53.060;18.726;2023-04-04T00:59:47;101857.62;;;-0.97;72.58
51147;BME280;37207;53.060;18.726;2023-04-04T01:02:13;101857.30;;;-0.97;72.58
51147;BME280;37207;53.060;18.726;2023-04-04T01:04:39;101858.01;;;-0.97;72.56
51147;BME280;37207;53.060;18.726;2023-04-04T01:07:06;101857.14;;;-0.99;72.44
51147;BME280;37207;53.060;18.726;2023-04-04T01:09:33;101855.02;;;-1.02;72.44
51147;BME280;37207;53.060;18.726;2023-04-04T01:12:00;101854.48;;;-1.04;72.51
51147;BME280;37207;53.060;18.726;2023-04-04T01:14:28;101849.35;;;-1.07;72.56
51147;BME280;37207;53.060;18.726;2023-04-04T01:16:54;101845.16;;;-1.08;72.41
51147;BME280;37207;53.060;18.726;2023-04-04T01:19:32;101847.32;;;-1.09;72.59
51147;BME280;37207;53.060;18.726;2023-04-04T01:22:04;101839.97;;;-1.07;72.73
51147;BME280;37207;53.060;18.726;2023-04-04T01:24:32;101841.38;;;-1.04;72.83
51147;BME280;37207;53.060;18.726;2023-04-04T01:26:59;101836.90;;;-1.01;73.24
51147;BME280;37207;53.060;18.726;2023-04-04T01:29:26;101837.47;;;-0.98;73.41
51147;BME280;37207;53.060;18.726;2023-04-04T01:40:17;101821.63;;;-0.92;73.06
51147;BME280;37207;53.060;18.726;2023-04-04T01:42:48;101822.02;;;-0.92;73.36
51147;BME280;37207;53.060;18.726;2023-04-04T01:45:16;101819.77;;;-0.92;73.05
51147;BME280;37207;53.060;18.726;2023-04-04T01:47:43;101819.40;;;-0.90;73.55
51147;BME280;37207;53.060;18.726;2023-04-04T01:50:13;101816.00;;;-0.89;73.32
51147;BME280;37207;53.060;18.726;2023-04-04T01:52:40;101816.78;;;-0.88;73.41
51147;BME280;37207;53.060;18.726;2023-04-04T01:55:06;101815.55;;;-0.87;73.23
51147;BME280;37207;53.060;18.726;2023-04-04T01:57:33;101815.00;;;-0.87;73.31
51147;BME280;37207;53.060;18.726;2023-04-04T01:59:59;101812.91;;;-0.87;73.42
51147;BME280;37207;53.060;18.726;2023-04-04T02:02:25;101815.09;;;-0.87;73.16
51147;BME280;37207;53.060;18.726;2023-04-04T02:04:51;101811.52;;;-0.86;73.04
51147;BME280;37207;53.060;18.726;2023-04-04T02:07:18;101810.36;;;-0.88;73.42
51147;BME280;37207;53.060;18.726;2023-04-04T02:09:45;101806.39;;;-0.89;73.21
51147;BME280;37207;53.060;18.726;2023-04-04T02:12:11;101806.85;;;-0.90;73.29
51147;BME280;37207;53.060;18.726;2023-04-04T02:14:37;101804.14;;;-0.90;73.33
51147;BME280;37207;53.060;18.726;2023-04-04T02:17:03;101804.62;;;-0.87;73.91
51147;BME280;37207;53.060;18.726;2023-04-04T02:19:29;101803.61;;;-0.85;73.72
51147;BME280;37207;53.060;18.726;2023-04-04T02:21:55;101798.89;;;-0.85;73.77
51147;BME280;37207;53.060;18.726;2023-04-04T02:24:22;101794.77;;;-0.84;73.91
51147;BME280;37207;53.060;18.726;2023-04-04T02:26:47;101790.82;;;-0.84;73.71
51147;BME280;37207;53.060;18.726;2023-04-04T02:29:13;101791.23;;;-0.83;73.67
51147;BME280;37207;53.060;18.726;2023-04-04T02:31:39;101789.58;;;-0.84;73.82
51147;BME280;37207;53.060;18.726;2023-04-04T02:34:06;101792.60;;;-0.85;73.67
51147;BME280;37207;53.060;18.726;2023-04-04T02:36:32;101793.23;;;-0.84;73.79
51147;BME280;37207;53.060;18.726;2023-04-04T02:38:58;101793.23;;;-0.83;73.83
51147;BME280;37207;53.060;18.726;2023-04-04T02:41:25;101789.84;;;-0.80;73.77
51147;BME280;37207;53.060;18.726;2023-04-04T02:43:51;101785.44;;;-0.79;73.76
51147;BME280;37207;53.060;18.726;2023-04-04T02:46:17;101781.73;;;-0.78;73.85
51147;BME280;37207;53.060;18.726;2023-04-04T02:48:43;101783.51;;;-0.77;74.02
51147;BME280;37207;53.060;18.726;2023-04-04T02:51:09;101784.67;;;-0.77;73.83
51147;BME280;37207;53.060;18.726;2023-04-04T02:53:35;101785.30;;;-0.76;73.82
51147;BME280;37207;53.060;18.726;2023-04-04T02:56:11;101787.58;;;-0.73;73.82
51147;BME280;37207;53.060;18.726;2023-04-04T02:58:37;101788.60;;;-0.71;73.85
51147;BME280;37207;53.060;18.726;2023-04-04T03:01:03;101789.29;;;-0.68;74.00
51147;BME280;37207;53.060;18.726;2023-04-04T03:03:33;101784.95;;;-0.68;73.96
51147;BME280;37207;53.060;18.726;2023-04-04T03:05:59;101782.38;;;-0.69;73.57
51147;BME280;37207;53.060;18.726;2023-04-04T03:08:26;101783.94;;;-0.72;73.65
51147;BME280;37207;53.060;18.726;2023-04-04T03:10:55;101779.95;;;-0.75;73.46
51147;BME280;37207;53.060;18.726;2023-04-04T03:13:21;101780.58;;;-0.77;73.78
51147;BME280;37207;53.060;18.726;2023-04-04T03:15:48;101778.16;;;-0.78;73.75
51147;BME280;37207;53.060;18.726;2023-04-04T03:18:14;101780.56;;;-0.78;73.71
51147;BME280;37207;53.060;18.726;2023-04-04T03:20:41;101778.78;;;-0.77;73.57
51147;BME280;37207;53.060;18.726;2023-04-04T03:23:07;101780.66;;;-0.75;73.78
51147;BME280;37207;53.060;18.726;2023-04-04T03:25:32;101777.95;;;-0.75;73.44
51147;BME280;37207;53.060;18.726;2023-04-04T03:28:09;101777.95;;;-0.73;73.66
51147;BME280;37207;53.060;18.726;2023-04-04T03:30:36;101774.08;;;-0.74;73.55
51147;BME280;37207;53.060;18.726;2023-04-04T03:33:04;101772.54;;;-0.73;73.62
51147;BME280;37207;53.060;18.726;2023-04-04T03:35:36;101768.89;;;-0.73;73.74
51147;BME280;37207;53.060;18.726;2023-04-04T03:38:02;101766.64;;;-0.73;73.62
51147;BME280;37207;53.060;18.726;2023-04-04T03:40:28;101767.27;;;-0.73;73.40
51147;BME280;37207;53.060;18.726;2023-04-04T03:42:54;101770.52;;;-0.73;73.40
51147;BME280;37207;53.060;18.726;2023-04-04T03:45:21;101769.04;;;-0.74;73.64
51147;BME280;37207;53.060;18.726;2023-04-04T03:47:47;101769.73;;;-0.75;73.42
51147;BME280;37207;53.060;18.726;2023-04-04T03:50:13;101762.36;;;-0.75;73.49
51147;BME280;37207;53.060;18.726;2023-04-04T03:52:44;101764.91;;;-0.75;73.24
51147;BME280;37207;53.060;18.726;2023-04-04T03:55:10;101762.13;;;-0.75;73.44
51147;BME280;37207;53.060;18.726;2023-04-04T03:57:36;101761.52;;;-0.75;73.70
51147;BME280;37207;53.060;18.726;2023-04-04T04:00:03;101760.98;;;-0.75;73.63
51147;BME280;37207;53.060;18.726;2023-04-04T04:02:38;101759.59;;;-0.73;73.51
51147;BME280;37207;53.060;18.726;2023-04-04T04:05:04;101759.37;;;-0.72;73.80
51147;BME280;37207;53.060;18.726;2023-04-04T04:07:30;101758.67;;;-0.71;73.59
51147;BME280;37207;53.060;18.726;2023-04-04T04:09:56;101759.59;;;-0.69;73.66
51147;BME280;37207;53.060;18.726;2023-04-04T04:12:22;101755.48;;;-0.68;73.73
51147;BME280;37207;53.060;18.726;2023-04-04T04:14:50;101755.64;;;-0.67;73.65
51147;BME280;37207;53.060;18.726;2023-04-04T04:17:16;101760.75;;;-0.68;73.58
51147;BME280;37207;53.060;18.726;2023-04-04T04:19:43;101760.83;;;-0.69;73.78
51147;BME280;37207;53.060;18.726;2023-04-04T04:22:09;101763.23;;;-0.69;73.75
51147;BME280;37207;53.060;18.726;2023-04-04T04:24:35;101762.71;;;-0.71;73.47
51147;BME280;37207;53.060;18.726;2023-04-04T04:27:02;101764.33;;;-0.72;73.56
51147;BME280;37207;53.060;18.726;2023-04-04T04:29:28;101767.12;;;-0.72;73.75
51147;BME280;37207;53.060;18.726;2023-04-04T04:31:53;101772.70;;;-0.72;73.53
51147;BME280;37207;53.060;18.726;2023-04-04T04:34:22;101776.20;;;-0.71;73.77
51147;BME280;37207;53.060;18.726;2023-04-04T04:36:48;101776.57;;;-0.69;73.58
51147;BME280;37207;53.060;18.726;2023-04-04T04:39:19;101772.46;;;-0.67;73.70
51147;BME280;37207;53.060;18.726;2023-04-04T04:42:04;101773.88;;;-0.64;73.99
51147;BME280;37207;53.060;18.726;2023-04-04T04:44:32;101768.86;;;-0.62;73.86
51147;BME280;37207;53.060;18.726;2023-04-04T04:46:58;101774.62;;;-0.59;73.61
51147;BME280;37207;53.060;18.726;2023-04-04T04:49:24;101772.16;;;-0.56;73.77
51147;BME280;37207;53.060;18.726;2023-04-04T04:51:51;101766.73;;;-0.54;73.77
51147;BME280;37207;53.060;18.726;2023-04-04T04:54:17;101768.44;;;-0.51;73.71
51147;BME280;37207;53.060;18.726;2023-04-04T04:56:43;101768.29;;;-0.49;73.74
51147;BME280;37207;53.060;18.726;2023-04-04T04:59:09;101766.14;;;-0.47;73.74
51147;BME280;37207;53.060;18.726;2023-04-04T05:01:38;101770.19;;;-0.44;73.76
51147;BME280;37207;53.060;18.726;2023-04-04T05:04:04;101772.05;;;-0.42;73.68
51147;BME280;37207;53.060;18.726;2023-04-04T05:06:36;101775.64;;;-0.39;73.26
51147;BME280;37207;53.060;18.726;2023-04-04T05:09:07;101774.02;;;-0.36;73.27
51147;BME280;37207;53.060;18.726;2023-04-04T05:11:36;101772.16;;;-0.31;73.51
51147;BME280;37207;53.060;18.726;2023-04-04T05:14:02;101773.27;;;-0.27;72.97
51147;BME280;37207;53.060;18.726;2023-04-04T05:16:31;101769.11;;;-0.23;72.95
51147;BME280;37207;53.060;18.726;2023-04-04T05:18:57;101764.15;;;-0.18;72.70
51147;BME280;37207;53.060;18.726;2023-04-04T05:21:23;101763.52;;;-0.15;72.65
51147;BME280;37207;53.060;18.726;2023-04-04T05:23:49;101766.41;;;-0.13;72.32
51147;BME280;37207;53.060;18.726;2023-04-04T05:26:16;101767.13;;;-0.09;72.42
51147;BME280;37207;53.060;18.726;2023-04-04T05:28:42;101769.39;;;-0.05;72.55
51147;BME280;37207;53.060;18.726;2023-04-04T05:31:10;101769.88;;;-0.00;72.27
51147;BME280;37207;53.060;18.726;2023-04-04T05:33:36;101769.95;;;0.04;72.16
51147;BME280;37207;53.060;18.726;2023-04-04T05:36:15;101768.88;;;0.08;71.71
51147;BME280;37207;53.060;18.726;2023-04-04T05:38:46;101770.29;;;0.12;71.91
51147;BME280;37207;53.060;18.726;2023-04-04T05:41:13;101761.37;;;0.16;71.81
51147;BME280;37207;53.060;18.726;2023-04-04T05:43:41;101761.90;;;0.20;71.26
51147;BME280;37207;53.060;18.726;2023-04-04T05:46:11;101756.48;;;0.23;70.90
51147;BME280;37207;53.060;18.726;2023-04-04T05:48:41;101761.61;;;0.26;70.45
51147;BME280;37207;53.060;18.726;2023-04-04T05:51:07;101758.98;;;0.28;70.29
51147;BME280;37207;53.060;18.726;2023-04-04T05:53:39;101766.75;;;0.31;69.97
51147;BME280;37207;53.060;18.726;2023-04-04T05:56:05;101771.17;;;0.34;69.87
51147;BME280;37207;53.060;18.726;2023-04-04T05:58:32;101771.86;;;0.37;69.12
51147;BME280;37207;53.060;18.726;2023-04-04T06:00:58;101771.95;;;0.41;69.48
51147;BME280;37207;53.060;18.726;2023-04-04T06:03:24;101773.28;;;0.47;69.83
51147;BME280;37207;53.060;18.726;2023-04-04T06:05:51;101770.55;;;0.53;69.27
51147;BME280;37207;53.060;18.726;2023-04-04T06:08:18;101769.86;;;0.58;69.47
51147;BME280;37207;53.060;18.726;2023-04-04T06:10:44;101767.30;;;0.60;68.81
51147;BME280;37207;53.060;18.726;2023-04-04T06:13:10;101772.73;;;0.60;68.90
51147;BME280;37207;53.060;18.726;2023-04-04T06:15:36;101770.41;;;0.62;68.62
51147;BME280;37207;53.060;18.726;2023-04-04T06:18:02;101765.29;;;0.61;67.94
51147;BME280;37207;53.060;18.726;2023-04-04T06:20:28;101764.44;;;0.67;68.39
51147;BME280;37207;53.060;18.726;2023-04-04T06:22:54;101766.90;;;0.72;68.33
51147;BME280;37207;53.060;18.726;2023-04-04T06:25:20;101760.21;;;0.77;68.24
51147;BME280;37207;53.060;18.726;2023-04-04T06:27:47;101763.33;;;0.85;68.45
51147;BME280;37207;53.060;18.726;2023-04-04T06:30:13;101759.04;;;0.92;68.50
51147;BME280;37207;53.060;18.726;2023-04-04T06:32:43;101759.73;;;0.96;67.99
51147;BME280;37207;53.060;18.726;2023-04-04T06:35:13;101762.05;;;1.00;67.78
51147;BME280;37207;53.060;18.726;2023-04-04T06:37:43;101761.52;;;1.03;67.82
51147;BME280;37207;53.060;18.726;2023-04-04T06:40:15;101760.79;;;1.08;67.49
51147;BME280;37207;53.060;18.726;2023-04-04T06:42:49;101758.92;;;1.09;66.87
51147;BME280;37207;53.060;18.726;2023-04-04T06:45:17;101763.98;;;1.11;67.11
51147;BME280;37207;53.060;18.726;2023-04-04T06:47:43;101762.04;;;1.14;67.10
51147;BME280;37207;53.060;18.726;2023-04-04T06:50:10;101757.21;;;1.14;66.75
51147;BME280;37207;53.060;18.726;2023-04-04T06:52:36;101759.62;;;1.15;66.67
51147;BME280;37207;53.060;18.726;2023-04-04T06:55:03;101759.55;;;1.18;66.33
51147;BME280;37207;53.060;18.726;2023-04-04T06:57:29;101761.33;;;1.18;66.25
51147;BME280;37207;53.060;18.726;2023-04-04T06:59:54;101758.99;;;1.18;65.93
51147;BME280;37207;53.060;18.726;2023-04-04T07:02:20;101761.34;;;1.16;65.85
51147;BME280;37207;53.060;18.726;2023-04-04T07:04:46;101761.88;;;1.17;65.84
51147;BME280;37207;53.060;18.726;2023-04-04T07:07:12;101761.33;;;1.19;65.99
51147;BME280;37207;53.060;18.726;2023-04-04T07:09:38;101757.42;;;1.21;65.74
51147;BME280;37207;53.060;18.726;2023-04-04T07:12:04;101755.70;;;1.23;66.07
51147;BME280;37207;53.060;18.726;2023-04-04T07:14:30;101756.61;;;1.27;66.12
51147;BME280;37207;53.060;18.726;2023-04-04T07:16:56;101757.24;;;1.31;66.05
51147;BME280;37207;53.060;18.726;2023-04-04T07:19:22;101760.89;;;1.35;65.71
51147;BME280;37207;53.060;18.726;2023-04-04T07:21:56;101757.39;;;1.38;64.93
51147;BME280;37207;53.060;18.726;2023-04-04T07:24:22;101755.95;;;1.42;64.46
51147;BME280;37207;53.060;18.726;2023-04-04T07:26:47;101755.48;;;1.44;64.62
51147;BME280;37207;53.060;18.726;2023-04-04T07:29:13;101757.27;;;1.47;64.52
51147;BME280;37207;53.060;18.726;2023-04-04T07:31:39;101753.52;;;1.53;65.07
51147;BME280;37207;53.060;18.726;2023-04-04T07:34:05;101753.95;;;1.57;64.44
51147;BME280;37207;53.060;18.726;2023-04-04T07:36:32;101753.48;;;1.58;63.79
51147;BME280;37207;53.060;18.726;2023-04-04T07:38:57;101759.61;;;1.58;64.15
51147;BME280;37207;53.060;18.726;2023-04-04T07:41:23;101754.95;;;1.59;63.86
51147;BME280;37207;53.060;18.726;2023-04-04T07:43:50;101755.29;;;1.55;63.07
51147;BME280;37207;53.060;18.726;2023-04-04T07:46:16;101749.09;;;1.49;63.00
51147;BME280;37207;53.060;18.726;2023-04-04T07:48:42;101755.56;;;1.44;63.22
51147;BME280;37207;53.060;18.726;2023-04-04T07:51:09;101752.00;;;1.40;63.17
51147;BME280;37207;53.060;18.726;2023-04-04T07:53:35;101748.52;;;1.35;63.51
51147;BME280;37207;53.060;18.726;2023-04-04T07:56:01;101746.83;;;1.32;63.64
51147;BME280;37207;53.060;18.726;2023-04-04T07:58:34;101743.71;;;1.32;63.45
51147;BME280;37207;53.060;18.726;2023-04-04T08:01:01;101740.21;;;1.32;63.27
51147;BME280;37207;53.060;18.726;2023-04-04T08:03:28;101741.75;;;1.36;62.77
51147;BME280;37207;53.060;18.726;2023-04-04T08:05:54;101741.48;;;1.43;63.35
51147;BME280;37207;53.060;18.726;2023-04-04T08:08:20;101740.91;;;1.50;62.77
51147;BME280;37207;53.060;18.726;2023-04-04T08:10:46;101739.71;;;1.56;62.45
51147;BME280;37207;53.060;18.726;2023-04-04T08:13:14;101742.95;;;1.63;62.27
51147;BME280;37207;53.060;18.726;2023-04-04T08:15:40;101740.60;;;1.70;61.78
51147;BME280;37207;53.060;18.726;2023-04-04T08:18:06;101737.20;;;1.77;61.42
51147;BME280;37207;53.060;18.726;2023-04-04T08:20:32;101736.64;;;1.83;61.80
51147;BME280;37207;53.060;18.726;2023-04-04T08:22:57;101738.09;;;1.88;61.93
51147;BME280;37207;53.060;18.726;2023-04-04T08:25:24;101738.53;;;1.91;62.09
51147;BME280;37207;53.060;18.726;2023-04-04T08:27:49;101738.22;;;1.91;62.02
51147;BME280;37207;53.060;18.726;2023-04-04T08:30:15;101735.91;;;1.88;61.74
51147;BME280;37207;53.060;18.726;2023-04-04T08:32:42;101731.34;;;1.84;61.87
51147;BME280;37207;53.060;18.726;2023-04-04T08:35:11;101729.55;;;1.83;61.45
51147;BME280;37207;53.060;18.726;2023-04-04T08:37:37;101729.64;;;1.81;61.63
51147;BME280;37207;53.060;18.726;2023-04-04T08:40:05;101727.99;;;1.84;62.10
51147;BME280;37207;53.060;18.726;2023-04-04T08:42:32;101727.88;;;1.90;61.88
51147;BME280;37207;53.060;18.726;2023-04-04T08:45:03;101724.99;;;2.02;62.31
51147;BME280;37207;53.060;18.726;2023-04-04T08:47:31;101722.33;;;2.16;62.04
51147;BME280;37207;53.060;18.726;2023-04-04T08:49:58;101719.52;;;2.26;61.63
51147;BME280;37207;53.060;18.726;2023-04-04T08:52:27;101724.08;;;2.32;61.63
51147;BME280;37207;53.060;18.726;2023-04-04T08:54:54;101721.04;;;2.32;61.24
51147;BME280;37207;53.060;18.726;2023-04-04T08:57:20;101721.28;;;2.31;61.34
51147;BME280;37207;53.060;18.726;2023-04-04T08:59:46;101723.78;;;2.29;60.60
51147;BME280;37207;53.060;18.726;2023-04-04T09:02:27;101721.04;;;2.24;60.73
51147;BME280;37207;53.060;18.726;2023-04-04T09:04:55;101719.58;;;2.21;61.13
51147;BME280;37207;53.060;18.726;2023-04-04T09:07:21;101721.14;;;2.20;60.64
51147;BME280;37207;53.060;18.726;2023-04-04T09:09:49;101722.77;;;2.20;60.89
51147;BME280;37207;53.060;18.726;2023-04-04T09:12:17;101720.58;;;2.23;61.09
51147;BME280;37207;53.060;18.726;2023-04-04T09:14:45;101722.08;;;2.27;61.27
51147;BME280;37207;53.060;18.726;2023-04-04T09:17:12;101725.78;;;2.33;61.23
51147;BME280;37207;53.060;18.726;2023-04-04T09:19:38;101725.21;;;2.37;61.47
51147;BME280;37207;53.060;18.726;2023-04-04T09:22:08;101724.12;;;2.38;59.95
51147;BME280;37207;53.060;18.726;2023-04-04T09:24:41;101725.86;;;2.34;60.46
51147;BME280;37207;53.060;18.726;2023-04-04T09:27:09;101719.29;;;2.37;60.86
51147;BME280;37207;53.060;18.726;2023-04-04T09:29:39;101721.88;;;2.43;61.16
51147;BME280;37207;53.060;18.726;2023-04-04T09:32:09;101724.91;;;2.44;60.76
51147;BME280;37207;53.060;18.726;2023-04-04T09:34:36;101722.95;;;2.39;61.06
51147;BME280;37207;53.060;18.726;2023-04-04T09:37:03;101725.45;;;2.38;61.14
51147;BME280;37207;53.060;18.726;2023-04-04T09:39:31;101728.75;;;2.33;61.22
51147;BME280;37207;53.060;18.726;2023-04-04T09:41:58;101728.67;;;2.31;61.53
51147;BME280;37207;53.060;18.726;2023-04-04T09:44:26;101729.01;;;2.29;60.99
51147;BME280;37207;53.060;18.726;2023-04-04T09:47:24;101730.14;;;2.25;61.25
51147;BME280;37207;53.060;18.726;2023-04-04T09:49:50;101727.59;;;2.22;61.29
51147;BME280;37207;53.060;18.726;2023-04-04T09:52:17;101726.11;;;2.22;61.51
51147;BME280;37207;53.060;18.726;2023-04-04T09:54:44;101723.60;;;2.25;61.49
51147;BME280;37207;53.060;18.726;2023-04-04T09:57:11;101725.80;;;2.31;62.01
51147;BME280;37207;53.060;18.726;2023-04-04T09:59:37;101722.41;;;2.38;61.44
51147;BME280;37207;53.060;18.726;2023-04-04T10:02:02;101722.94;;;2.48;61.27
51147;BME280;37207;53.060;18.726;2023-04-04T10:04:34;101721.00;;;2.58;60.61
51147;BME280;37207;53.060;18.726;2023-04-04T10:07:00;101718.48;;;2.68;60.49
51147;BME280;37207;53.060;18.726;2023-04-04T10:09:27;101713.87;;;2.85;60.28
51147;BME280;37207;53.060;18.726;2023-04-04T10:12:07;101703.86;;;3.02;59.85
51147;BME280;37207;53.060;18.726;2023-04-04T10:14:34;101704.03;;;3.22;59.87
51147;BME280;37207;53.060;18.726;2023-04-04T10:17:05;101701.74;;;3.49;59.46
51147;BME280;37207;53.060;18.726;2023-04-04T10:19:34;101703.80;;;3.93;59.67
51147;BME280;37207;53.060;18.726;2023-04-04T10:22:04;101701.27;;;4.40;59.22
51147;BME280;37207;53.060;18.726;2023-04-04T10:24:30;101694.45;;;4.78;59.25
51147;BME280;37207;53.060;18.726;2023-04-04T10:26:56;101693.53;;;6.07;57.09
51147;BME280;37207;53.060;18.726;2023-04-04T10:29:23;101685.89;;;8.46;53.61
51147;BME280;37207;53.060;18.726;2023-04-04T10:31:58;101688.52;;;9.33;50.82
51147;BME280;37207;53.060;18.726;2023-04-04T10:34:35;101682.83;;;9.93;49.82
51147;BME280;37207;53.060;18.726;2023-04-04T10:37:19;101685.60;;;9.79;49.18
51147;BME280;37207;53.060;18.726;2023-04-04T10:39:54;101679.68;;;9.27;48.55
51147;BME280;37207;53.060;18.726;2023-04-04T10:42:25;101683.73;;;8.57;47.26
51147;BME280;37207;53.060;18.726;2023-04-04T10:44:54;101679.35;;;8.01;48.88
51147;BME280;37207;53.060;18.726;2023-04-04T10:47:21;101679.95;;;7.53;49.02
51147;BME280;37207;53.060;18.726;2023-04-04T10:49:50;101676.30;;;7.08;49.86
51147;BME280;37207;53.060;18.726;2023-04-04T10:52:21;101674.46;;;6.69;50.07
51147;BME280;37207;53.060;18.726;2023-04-04T10:54:53;101674.66;;;6.33;50.15
51147;BME280;37207;53.060;18.726;2023-04-04T10:57:22;101672.24;;;5.94;50.72
51147;BME280;37207;53.060;18.726;2023-04-04T11:00:14;101673.56;;;5.59;51.01
51147;BME280;37207;53.060;18.726;2023-04-04T11:02:58;101674.06;;;5.28;51.40
51147;BME280;37207;53.060;18.726;2023-04-04T11:08:08;101668.49;;;5.62;52.72
51147;BME280;37207;53.060;18.726;2023-04-04T11:10:37;101663.46;;;6.14;52.44
51147;BME280;37207;53.060;18.726;2023-04-04T11:13:31;101656.08;;;6.67;52.85
51147;BME280;37207;53.060;18.726;2023-04-04T11:16:03;101654.05;;;7.55;52.37
51147;BME280;37207;53.060;18.726;2023-04-04T11:21:09;101649.14;;;8.68;51.68
51147;BME280;37207;53.060;18.726;2023-04-04T11:26:18;101642.08;;;8.88;49.21
51147;BME280;37207;53.060;18.726;2023-04-04T11:29:03;101648.39;;;8.58;49.57
51147;BME280;37207;53.060;18.726;2023-04-04T11:31:41;101646.13;;;8.24;49.09
51147;BME280;37207;53.060;18.726;2023-04-04T11:34:12;101645.11;;;7.90;48.25
51147;BME280;37207;53.060;18.726;2023-04-04T11:44:30;101629.10;;;9.00;48.99
51147;BME280;37207;53.060;18.726;2023-04-04T11:49:29;101618.08;;;10.17;47.84
51147;BME280;37207;53.060;18.726;2023-04-04T11:52:03;101620.02;;;10.31;47.07
51147;BME280;37207;53.060;18.726;2023-04-04T11:54:30;101617.30;;;10.30;45.85
51147;BME280;37207;53.060;18.726;2023-04-04T11:56:57;101618.53;;;9.89;45.23
51147;BME280;37207;53.060;18.726;2023-04-04T11:59:23;101620.86;;;9.45;45.99
51147;BME280;37207;53.060;18.726;2023-04-04T12:01:49;101619.94;;;9.03;45.94
51147;BME280;37207;53.060;18.726;2023-04-04T12:04:19;101616.83;;;8.60;46.49
51147;BME280;37207;53.060;18.726;2023-04-04T12:06:48;101618.91;;;8.24;45.98
51147;BME280;37207;53.060;18.726;2023-04-04T12:09:16;101616.20;;;7.92;46.26
51147;BME280;37207;53.060;18.726;2023-04-04T12:11:48;101609.72;;;7.79;46.56
51147;BME280;37207;53.060;18.726;2023-04-04T12:16:43;101611.16;;;7.13;46.71
51147;BME280;37207;53.060;18.726;2023-04-04T12:19:09;101611.20;;;6.82;47.04
51147;BME280;37207;53.060;18.726;2023-04-04T12:21:36;101614.77;;;6.57;47.28
51147;BME280;37207;53.060;18.726;2023-04-04T12:24:02;101614.40;;;6.36;48.24
51147;BME280;37207;53.060;18.726;2023-04-04T12:26:28;101606.86;;;6.21;48.49
51147;BME280;37207;53.060;18.726;2023-04-04T12:28:56;101610.36;;;5.97;48.33
51147;BME280;37207;53.060;18.726;2023-04-04T12:31:24;101610.19;;;5.80;49.49
51147;BME280;37207;53.060;18.726;2023-04-04T12:33:50;101607.39;;;5.69;49.74
51147;BME280;37207;53.060;18.726;2023-04-04T12:36:16;101602.44;;;5.56;50.10
51147;BME280;37207;53.060;18.726;2023-04-04T12:39:15;101594.55;;;5.49;50.29
51147;BME280;37207;53.060;18.726;2023-04-04T12:42:01;101591.77;;;6.33;50.53
51147;BME280;37207;53.060;18.726;2023-04-04T12:46:57;101575.05;;;7.26;49.55
51147;BME280;37207;53.060;18.726;2023-04-04T12:49:33;101580.56;;;8.09;47.74
51147;BME280;37207;53.060;18.726;2023-04-04T12:51:59;101572.29;;;9.17;47.79
51147;BME280;37207;53.060;18.726;2023-04-04T12:54:38;101566.77;;;10.02;47.19
51147;BME280;37207;53.060;18.726;2023-04-04T12:57:05;101567.65;;;10.89;46.21
51147;BME280;37207;53.060;18.726;2023-04-04T12:59:34;101566.52;;;10.77;45.68
51147;BME280;37207;53.060;18.726;2023-04-04T13:02:07;101562.54;;;10.24;44.88
51147;BME280;37207;53.060;18.726;2023-04-04T13:04:35;101562.86;;;9.55;44.51
51147;BME280;37207;53.060;18.726;2023-04-04T13:07:02;101560.68;;;8.97;45.20
51147;BME280;37207;53.060;18.726;2023-04-04T13:09:28;101555.56;;;8.53;46.27
51147;BME280;37207;53.060;18.726;2023-04-04T13:14:25;101549.12;;;8.86;46.56
51147;BME280;37207;53.060;18.726;2023-04-04T13:17:05;101543.02;;;9.57;46.72
51147;BME280;37207;53.060;18.726;2023-04-04T13:19:33;101544.91;;;9.35;45.88
51147;BME280;37207;53.060;18.726;2023-04-04T13:22:00;101540.06;;;9.73;45.99
51147;BME280;37207;53.060;18.726;2023-04-04T13:24:27;101535.55;;;10.51;44.81